Csl Tecumseh — C6ZJ6 — position and weather

sailwx.info

Track history (hours):
 
Tides and Currents Weather Stations Pressure Air Temp Water Temp Dewpoint Dewpoint Depression Visibility Wind Speed Wind Dir Waves Ship Positions

Csl Tecumseh

Last reported at 2018-Jun-22 05:59 UTC. Time now 2018-Jun-22 07:32 UTC.
Position N 38°01' W 121°47'.

Length 228 m; draft 9.2 m.

Type: Cargo ship. MMSI: 311056900.

Date/timePositionNaut miles runAvg speedWind from/ knotsBaromVisibWave heightAir tempDewpointWater temp
2018-Jun-22 05:59N 38°01' W 121°47'0 0.0
2018-Jun-22 05:23N 38°01' W 121°47'0 0.0
2018-Jun-22 04:35N 38°01' W 121°47'0 0.0
2018-Jun-22 04:29N 38°01' W 121°47'0 0.0
2018-Jun-22 03:53N 38°01' W 121°47'0 0.0
2018-Jun-22 03:29N 38°01' W 121°47'0 0.0
2018-Jun-21 16:56N 38°01' W 121°47'2 4.5
2018-Jun-21 16:30N 38°02' W 121°50'3 6.5
2018-Jun-21 16:00N 38°03' W 121°53'11 8.8
2018-Jun-21 14:42N 38°02' W 122°08'2 5.9
2018-Jun-21 14:20N 38°03' W 122°11'2 7.6
2018-Jun-21 14:00N 38°04' W 122°13'612.2
2018-Jun-21 13:29N 38°02' W 122°21'613.7
2018-Jun-21 13:00N 37°57' W 122°27'713.3
2018-Jun-21 12:30N 37°51' W 122°24'510.4
2018-Jun-21 12:00N 37°46' W 122°21'0 0.8
2018-Jun-21 11:28N 37°46' W 122°21'0 0.0
2018-Jun-21 10:58N 37°46' W 122°21'0 0.3
2018-Jun-21 10:28N 37°46' W 122°21'0 0.4
2018-Jun-21 09:58N 37°46' W 122°21'0 0.0
2018-Jun-21 09:28N 37°46' W 122°21'0 0.0
2018-Jun-21 08:58N 37°46' W 122°21'0 0.0
2018-Jun-21 08:29N 37°46' W 122°21'0 0.0
2018-Jun-21 07:58N 37°46' W 122°21'0 0.0
2018-Jun-21 07:28N 37°46' W 122°21'0 0.0
2018-Jun-21 06:58N 37°46' W 122°21'0 0.0
2018-Jun-21 06:28N 37°46' W 122°21'0 0.0
2018-Jun-21 05:58N 37°46' W 122°21'0 0.0
2018-Jun-21 05:28N 37°46' W 122°21'0 0.0
2018-Jun-21 04:58N 37°46' W 122°21'0 0.1
2018-Jun-21 04:28N 37°46' W 122°21'0 0.0
2018-Jun-21 03:58N 37°46' W 122°21'0 0.2
2018-Jun-21 03:28N 37°46' W 122°21'0 0.3
2018-Jun-21 02:58N 37°46' W 122°21'0 0.0
2018-Jun-21 02:28N 37°46' W 122°21'0 0.2
2018-Jun-21 01:58N 37°46' W 122°21'0 0.0
2018-Jun-21 01:28N 37°46' W 122°21'0 0.0
2018-Jun-21 00:58N 37°46' W 122°21'0 0.1
2018-Jun-21 00:28N 37°46' W 122°21'0 0.0
2018-Jun-20 23:58N 37°46' W 122°21'0 0.0
2018-Jun-20 23:28N 37°46' W 122°21'0 0.1
2018-Jun-20 22:58N 37°46' W 122°21'1 1.1
2018-Jun-20 22:30N 37°46' W 122°21'5 9.4
2018-Jun-20 22:00N 37°49' W 122°26'714.2
2018-Jun-20 21:30N 37°47' W 122°35'611.6
2018-Jun-20 21:00N 37°46' W 122°42'5 9.2
2018-Jun-20 20:30N 37°47' W 122°47'5 9.7
2018-Jun-20 20:00N 37°49' W 122°53'5 9.8
2018-Jun-20 19:30N 37°52' W 122°58'5 9.8
2018-Jun-20 19:00N 37°54' W 123°04'5 9.8
2018-Jun-20 18:29N 37°56' W 123°09'5 9.7
2018-Jun-20 18:00N 37°60' W 123°13'5 9.9
2018-Jun-20 17:30N 38°04' W 123°17'510.0
2018-Jun-20 17:00N 38°07' W 123°22'2 4.2
2018-Jun-20 16:30N 38°07' W 123°24'1 1.2
2018-Jun-20 16:00N 38°06' W 123°24'0 0.6
2018-Jun-20 15:30N 38°07' W 123°24'1 1.2
2018-Jun-20 15:00N 38°07' W 123°24'0 0.5
2018-Jun-20 14:30N 38°07' W 123°25'2 3.4
2018-Jun-20 14:00N 38°07' W 123°22'4 8.6
2018-Jun-20 13:30N 38°11' W 123°26'4 8.7
2018-Jun-20 13:00N 38°14' W 123°29'713.4
2018-Jun-20 12:30N 38°19' W 123°35'613.0
2018-Jun-20 12:00N 38°24' W 123°41'612.9
2018-Jun-20 11:30N 38°28' W 123°47'712.7
2018-Jun-20 10:59N 38°33' W 123°52'612.7
2018-Jun-20 10:30N 38°38' W 123°58'24312.6
2018-Jun-19 15:15N 42°32' W 125°21'312.9
2018-Jun-19 15:00N 42°35' W 125°21'812.7
2018-Jun-19 14:22N 42°43' W 125°21'512.7
2018-Jun-19 14:00N 42°48' W 125°21'612.4
2018-Jun-19 13:30N 42°54' W 125°20'612.3
2018-Jun-19 13:00N 43°00' W 125°20'1312.8
2018-Jun-19 12:00N 43°13' W 125°19'712.5
2018-Jun-19 11:25N 43°20' W 125°19'512.8
2018-Jun-19 11:00N 43°26' W 125°19'1312.6
2018-Jun-19 09:57N 43°39' W 125°18'612.8
2018-Jun-19 09:30N 43°45' W 125°18'612.6
2018-Jun-19 09:00N 43°51' W 125°15'612.6
2018-Jun-19 08:30N 43°57' W 125°13'612.6
2018-Jun-19 08:00N 44°03' W 125°10'612.9
2018-Jun-19 07:30N 44°09' W 125°08'713.1
2018-Jun-19 06:59N 44°15' W 125°05'613.0
2018-Jun-19 06:31N 44°21' W 125°03'713.0
2018-Jun-19 06:00N 44°28' W 124°60'612.8
2018-Jun-19 05:30N 44°34' W 124°57'612.8
2018-Jun-19 05:01N 44°40' W 124°55'912.9
2018-Jun-19 04:18N 44°48' W 124°51'412.8
2018-Jun-19 04:00N 44°52' W 124°49'612.7
2018-Jun-19 03:30N 44°58' W 124°46'612.6
2018-Jun-19 03:00N 45°04' W 124°44'612.6
2018-Jun-19 02:30N 45°10' W 124°41'612.5
2018-Jun-19 02:00N 45°16' W 124°39'612.7
2018-Jun-19 01:30N 45°22' W 124°37'612.9
2018-Jun-19 01:00N 45°28' W 124°33'613.0
2018-Jun-19 00:30N 45°34' W 124°30'613.0
2018-Jun-19 00:00N 45°41' W 124°28'612.8
2018-Jun-18 23:30N 45°47' W 124°25'612.5
2018-Jun-18 23:00N 45°53' W 124°23'612.3
2018-Jun-18 22:30N 45°58' W 124°19'612.3
2018-Jun-18 22:01N 46°04' W 124°15'611.9
2018-Jun-18 21:30N 46°09' W 124°11'611.3
2018-Jun-18 21:00N 46°14' W 124°07'5 9.8
2018-Jun-18 20:30N 46°15' W 123°60'612.1
2018-Jun-18 20:00N 46°12' W 123°53'611.8
2018-Jun-18 19:30N 46°14' W 123°44'713.1
2018-Jun-18 19:01N 46°15' W 123°35'612.4
2018-Jun-18 18:30N 46°15' W 123°26'612.5
2018-Jun-18 18:01N 46°09' W 123°23'913.5
2018-Jun-18 17:21N 46°11' W 123°11'412.8
2018-Jun-18 17:00N 46°10' W 123°05'6 9.6
2018-Jun-18 16:26N 46°07' W 122°58'0 0.0
2018-Jun-18 15:56N 46°07' W 122°58'0 0.0
2018-Jun-18 15:29N 46°07' W 122°58'0 0.0
2018-Jun-18 14:53N 46°07' W 122°58'0 0.0
2018-Jun-18 14:26N 46°07' W 122°58'0 0.0
2018-Jun-18 13:59N 46°07' W 122°58'0 0.0
2018-Jun-18 13:29N 46°07' W 122°58'0 0.0
2018-Jun-18 12:56N 46°07' W 122°58'0 0.0
2018-Jun-18 12:26N 46°07' W 122°58'0 0.0
2018-Jun-18 11:55N 46°07' W 122°58'0 0.0
2018-Jun-18 11:29N 46°07' W 122°58'0 0.0
2018-Jun-18 10:50N 46°07' W 122°58'0 0.0
2018-Jun-18 10:23N 46°07' W 122°58'0 0.0
2018-Jun-18 09:17N 46°07' W 122°58'0 0.0
2018-Jun-18 08:47N 46°07' W 122°58'0 0.0
2018-Jun-18 08:23N 46°07' W 122°58'0 0.0
2018-Jun-18 07:58N 46°07' W 122°58'0 0.0
2018-Jun-18 07:29N 46°07' W 122°58'0 0.0
2018-Jun-18 06:53N 46°07' W 122°58'0 0.0
2018-Jun-18 06:20N 46°07' W 122°58'0 0.0
2018-Jun-18 05:59N 46°07' W 122°58'0 0.0
2018-Jun-18 05:29N 46°07' W 122°58'0 0.0
2018-Jun-18 04:55N 46°07' W 122°58'0 0.0
2018-Jun-18 04:26N 46°07' W 122°58'0 0.0
2018-Jun-18 03:56N 46°07' W 122°58'0 0.0
2018-Jun-18 03:22N 46°07' W 122°58'0 0.0
2018-Jun-18 03:00N 46°07' W 122°58'5 6.0
2018-Jun-18 02:06N 46°10' W 123°05'410.6
2018-Jun-18 01:44N 46°11' W 123°10'312.2
2018-Jun-18 01:31N 46°10' W 123°13'611.3
2018-Jun-18 01:00N 46°09' W 123°21'5 9.9
2018-Jun-18 00:30N 46°12' W 123°26'510.1
2018-Jun-18 00:00N 46°16' W 123°31'613.0
2018-Jun-17 23:31N 46°15' W 123°40'811.5
2018-Jun-17 22:47N 46°12' W 123°51'310.5
2018-Jun-17 22:31N 46°11' W 123°55'612.2
2018-Jun-17 22:01N 46°15' W 124°02'812.0
2018-Jun-17 21:21N 46°12' W 124°12'511.7
2018-Jun-17 20:57N 46°09' W 124°17'610.8
2018-Jun-17 20:23N 46°04' W 124°23'1 3.6
2018-Jun-17 20:00N 46°03' W 124°24'2 4.0
2018-Jun-17 19:31N 46°01' W 124°24'4 8.0
2018-Jun-17 19:00N 45°57' W 124°25'611.6
2018-Jun-17 18:31N 45°52' W 124°27'611.5
2018-Jun-17 18:01N 45°46' W 124°29'611.6
2018-Jun-17 17:31N 45°41' W 124°32'611.7
2018-Jun-17 17:01N 45°35' W 124°34'611.6
2018-Jun-17 16:31N 45°29' W 124°36'711.7
2018-Jun-17 15:56N 45°23' W 124°39'511.8
2018-Jun-17 15:31N 45°18' W 124°41'611.9
2018-Jun-17 15:01N 45°12' W 124°43'611.9
2018-Jun-17 14:31N 45°07' W 124°45'612.4
2018-Jun-17 14:00N 45°01' W 124°47'713.4
2018-Jun-17 13:30N 44°54' W 124°51'713.6
2018-Jun-17 13:00N 44°48' W 124°53'713.2
2018-Jun-17 12:30N 44°41' W 124°55'713.2
2018-Jun-17 12:00N 44°35' W 124°58'713.0
2018-Jun-17 11:30N 44°29' W 125°00'713.2
2018-Jun-17 11:00N 44°22' W 125°03'713.2
2018-Jun-17 10:30N 44°16' W 125°06'1112.9
2018-Jun-17 09:41N 44°06' W 125°10'613.1
2018-Jun-17 09:12N 43°60' W 125°12'213.0
2018-Jun-17 09:00N 43°57' W 125°13'713.2
2018-Jun-17 08:30N 43°51' W 125°15'713.1
2018-Jun-17 08:00N 43°44' W 125°17'613.1
2018-Jun-17 07:30N 43°38' W 125°16'712.9
2018-Jun-17 06:56N 43°30' W 125°16'30411.2
2018-Jun-16 03:47N 38°30' W 124°13'311.3
2018-Jun-16 03:29N 38°27' W 124°11'611.4
2018-Jun-16 02:59N 38°21' W 124°08'611.4
2018-Jun-16 02:27N 38°16' W 124°06'512.1
2018-Jun-16 02:00N 38°11' W 124°03'612.2
2018-Jun-16 01:30N 38°05' W 124°01'612.2
2018-Jun-16 01:00N 37°59' W 123°58'612.1
2018-Jun-16 00:30N 37°53' W 123°56'612.1
2018-Jun-16 00:00N 37°48' W 123°53'611.8
2018-Jun-15 23:30N 37°42' W 123°50'611.8
2018-Jun-15 23:00N 37°37' W 123°47'4412.2
2018-Jun-15 19:25N 36°56' W 123°27'612.7
2018-Jun-15 18:59N 36°51' W 123°24'612.0
2018-Jun-15 18:27N 36°45' W 123°22'512.1
2018-Jun-15 18:00N 36°40' W 123°19'13212.6
2018-Jun-15 07:27N 34°47' W 121°54'613.5
2018-Jun-15 07:00N 34°42' W 121°50'813.2
2018-Jun-15 06:23N 34°35' W 121°44'613.7
2018-Jun-15 05:59N 34°30' W 121°41'813.0
2018-Jun-15 05:23N 34°24' W 121°36'713.0
2018-Jun-15 04:52N 34°18' W 121°31'713.8
2018-Jun-15 04:21N 34°12' W 121°27'514.0
2018-Jun-15 04:00N 34°08' W 121°24'713.7
2018-Jun-15 03:30N 34°02' W 121°19'713.4
2018-Jun-15 02:57N 33°56' W 121°14'813.0
2018-Jun-15 02:19N 33°49' W 121°09'412.5
2018-Jun-15 02:00N 33°46' W 121°06'712.3
2018-Jun-15 01:26N 33°40' W 121°02'512.4
2018-Jun-15 01:00N 33°35' W 120°59'612.5
2018-Jun-15 00:30N 33°30' W 120°55'612.2
2018-Jun-15 00:00N 33°25' W 120°51'711.9
2018-Jun-14 23:27N 33°19' W 120°46'512.3
2018-Jun-14 23:00N 33°15' W 120°43'612.6
2018-Jun-14 22:30N 33°09' W 120°39'611.8
2018-Jun-14 22:00N 33°04' W 120°35'612.1
2018-Jun-14 21:30N 32°59' W 120°31'712.7
2018-Jun-14 20:59N 32°54' W 120°27'15312.9
2018-Jun-14 09:07N 30°46' W 118°48'413.1
2018-Jun-14 08:49N 30°43' W 118°45'2812.6
2018-Jun-14 06:38N 30°22' W 118°24'5612.9
2018-Jun-14 02:19N 29°39' W 117°44'1913.4
2018-Jun-14 00:52N 29°24' W 117°30'513.3
2018-Jun-14 00:30N 29°20' W 117°27'  
Track history (hours):
 
Tides and Currents Weather Stations Pressure Air Temp Water Temp Dewpoint Dewpoint Depression Visibility Wind Speed Wind Dir Waves Ship Positions

Csl Tecumseh

Last reported at 2018-Jun-22 05:59 UTC. Time now 2018-Jun-22 07:32 UTC.
Position N 38°01' W 121°47'.

Length 228 m; draft 9.2 m.

Type: Cargo ship. MMSI: 311056900.

Date/timePositionNaut miles runAvg speedWind from/ knotsBaromVisibWave heightAir tempDewpointWater temp
2018-Jun-22 05:59N 38°01' W 121°47'0 0.0
2018-Jun-22 05:23N 38°01' W 121°47'0 0.0
2018-Jun-22 04:35N 38°01' W 121°47'0 0.0
2018-Jun-22 04:29N 38°01' W 121°47'0 0.0
2018-Jun-22 03:53N 38°01' W 121°47'0 0.0
2018-Jun-22 03:29N 38°01' W 121°47'0 0.0
2018-Jun-21 16:56N 38°01' W 121°47'2 4.5
2018-Jun-21 16:30N 38°02' W 121°50'3 6.5
2018-Jun-21 16:00N 38°03' W 121°53'11 8.8
2018-Jun-21 14:42N 38°02' W 122°08'2 5.9
2018-Jun-21 14:20N 38°03' W 122°11'2 7.6
2018-Jun-21 14:00N 38°04' W 122°13'612.2
2018-Jun-21 13:29N 38°02' W 122°21'613.7
2018-Jun-21 13:00N 37°57' W 122°27'713.3
2018-Jun-21 12:30N 37°51' W 122°24'510.4
2018-Jun-21 12:00N 37°46' W 122°21'0 0.8
2018-Jun-21 11:28N 37°46' W 122°21'0 0.0
2018-Jun-21 10:58N 37°46' W 122°21'0 0.3
2018-Jun-21 10:28N 37°46' W 122°21'0 0.4
2018-Jun-21 09:58N 37°46' W 122°21'0 0.0
2018-Jun-21 09:28N 37°46' W 122°21'0 0.0
2018-Jun-21 08:58N 37°46' W 122°21'0 0.0
2018-Jun-21 08:29N 37°46' W 122°21'0 0.0
2018-Jun-21 07:58N 37°46' W 122°21'0 0.0
2018-Jun-21 07:28N 37°46' W 122°21'0 0.0
2018-Jun-21 06:58N 37°46' W 122°21'0 0.0
2018-Jun-21 06:28N 37°46' W 122°21'0 0.0
2018-Jun-21 05:58N 37°46' W 122°21'0 0.0
2018-Jun-21 05:28N 37°46' W 122°21'0 0.0
2018-Jun-21 04:58N 37°46' W 122°21'0 0.1
2018-Jun-21 04:28N 37°46' W 122°21'0 0.0
2018-Jun-21 03:58N 37°46' W 122°21'0 0.2
2018-Jun-21 03:28N 37°46' W 122°21'0 0.3
2018-Jun-21 02:58N 37°46' W 122°21'0 0.0
2018-Jun-21 02:28N 37°46' W 122°21'0 0.2
2018-Jun-21 01:58N 37°46' W 122°21'0 0.0
2018-Jun-21 01:28N 37°46' W 122°21'0 0.0
2018-Jun-21 00:58N 37°46' W 122°21'0 0.1
2018-Jun-21 00:28N 37°46' W 122°21'0 0.0
2018-Jun-20 23:58N 37°46' W 122°21'0 0.0
2018-Jun-20 23:28N 37°46' W 122°21'0 0.1
2018-Jun-20 22:58N 37°46' W 122°21'1 1.1
2018-Jun-20 22:30N 37°46' W 122°21'5 9.4
2018-Jun-20 22:00N 37°49' W 122°26'714.2
2018-Jun-20 21:30N 37°47' W 122°35'611.6
2018-Jun-20 21:00N 37°46' W 122°42'5 9.2
2018-Jun-20 20:30N 37°47' W 122°47'5 9.7
2018-Jun-20 20:00N 37°49' W 122°53'5 9.8
2018-Jun-20 19:30N 37°52' W 122°58'5 9.8
2018-Jun-20 19:00N 37°54' W 123°04'5 9.8
2018-Jun-20 18:29N 37°56' W 123°09'5 9.7
2018-Jun-20 18:00N 37°60' W 123°13'5 9.9
2018-Jun-20 17:30N 38°04' W 123°17'510.0
2018-Jun-20 17:00N 38°07' W 123°22'2 4.2
2018-Jun-20 16:30N 38°07' W 123°24'1 1.2
2018-Jun-20 16:00N 38°06' W 123°24'0 0.6
2018-Jun-20 15:30N 38°07' W 123°24'1 1.2
2018-Jun-20 15:00N 38°07' W 123°24'0 0.5
2018-Jun-20 14:30N 38°07' W 123°25'2 3.4
2018-Jun-20 14:00N 38°07' W 123°22'4 8.6
2018-Jun-20 13:30N 38°11' W 123°26'4 8.7
2018-Jun-20 13:00N 38°14' W 123°29'713.4
2018-Jun-20 12:30N 38°19' W 123°35'613.0
2018-Jun-20 12:00N 38°24' W 123°41'612.9
2018-Jun-20 11:30N 38°28' W 123°47'712.7
2018-Jun-20 10:59N 38°33' W 123°52'612.7
2018-Jun-20 10:30N 38°38' W 123°58'24312.6
2018-Jun-19 15:15N 42°32' W 125°21'312.9
2018-Jun-19 15:00N 42°35' W 125°21'812.7
2018-Jun-19 14:22N 42°43' W 125°21'512.7
2018-Jun-19 14:00N 42°48' W 125°21'612.4
2018-Jun-19 13:30N 42°54' W 125°20'612.3
2018-Jun-19 13:00N 43°00' W 125°20'1312.8
2018-Jun-19 12:00N 43°13' W 125°19'712.5
2018-Jun-19 11:25N 43°20' W 125°19'512.8
2018-Jun-19 11:00N 43°26' W 125°19'1312.6
2018-Jun-19 09:57N 43°39' W 125°18'612.8
2018-Jun-19 09:30N 43°45' W 125°18'612.6
2018-Jun-19 09:00N 43°51' W 125°15'612.6
2018-Jun-19 08:30N 43°57' W 125°13'612.6
2018-Jun-19 08:00N 44°03' W 125°10'612.9
2018-Jun-19 07:30N 44°09' W 125°08'713.1
2018-Jun-19 06:59N 44°15' W 125°05'613.0
2018-Jun-19 06:31N 44°21' W 125°03'713.0
2018-Jun-19 06:00N 44°28' W 124°60'612.8
2018-Jun-19 05:30N 44°34' W 124°57'612.8
2018-Jun-19 05:01N 44°40' W 124°55'912.9
2018-Jun-19 04:18N 44°48' W 124°51'412.8
2018-Jun-19 04:00N 44°52' W 124°49'612.7
2018-Jun-19 03:30N 44°58' W 124°46'612.6
2018-Jun-19 03:00N 45°04' W 124°44'612.6
2018-Jun-19 02:30N 45°10' W 124°41'612.5
2018-Jun-19 02:00N 45°16' W 124°39'612.7
2018-Jun-19 01:30N 45°22' W 124°37'612.9
2018-Jun-19 01:00N 45°28' W 124°33'613.0
2018-Jun-19 00:30N 45°34' W 124°30'613.0
2018-Jun-19 00:00N 45°41' W 124°28'612.8
2018-Jun-18 23:30N 45°47' W 124°25'612.5
2018-Jun-18 23:00N 45°53' W 124°23'612.3
2018-Jun-18 22:30N 45°58' W 124°19'612.3
2018-Jun-18 22:01N 46°04' W 124°15'611.9
2018-Jun-18 21:30N 46°09' W 124°11'611.3
2018-Jun-18 21:00N 46°14' W 124°07'5 9.8
2018-Jun-18 20:30N 46°15' W 123°60'612.1
2018-Jun-18 20:00N 46°12' W 123°53'611.8
2018-Jun-18 19:30N 46°14' W 123°44'713.1
2018-Jun-18 19:01N 46°15' W 123°35'612.4
2018-Jun-18 18:30N 46°15' W 123°26'612.5
2018-Jun-18 18:01N 46°09' W 123°23'913.5
2018-Jun-18 17:21N 46°11' W 123°11'412.8
2018-Jun-18 17:00N 46°10' W 123°05'6 9.6
2018-Jun-18 16:26N 46°07' W 122°58'0 0.0
2018-Jun-18 15:56N 46°07' W 122°58'0 0.0
2018-Jun-18 15:29N 46°07' W 122°58'0 0.0
2018-Jun-18 14:53N 46°07' W 122°58'0 0.0
2018-Jun-18 14:26N 46°07' W 122°58'0 0.0
2018-Jun-18 13:59N 46°07' W 122°58'0 0.0
2018-Jun-18 13:29N 46°07' W 122°58'0 0.0
2018-Jun-18 12:56N 46°07' W 122°58'0 0.0
2018-Jun-18 12:26N 46°07' W 122°58'0 0.0
2018-Jun-18 11:55N 46°07' W 122°58'0 0.0
2018-Jun-18 11:29N 46°07' W 122°58'0 0.0
2018-Jun-18 10:50N 46°07' W 122°58'0 0.0
2018-Jun-18 10:23N 46°07' W 122°58'0 0.0
2018-Jun-18 09:17N 46°07' W 122°58'0 0.0
2018-Jun-18 08:47N 46°07' W 122°58'0 0.0
2018-Jun-18 08:23N 46°07' W 122°58'0 0.0
2018-Jun-18 07:58N 46°07' W 122°58'0 0.0
2018-Jun-18 07:29N 46°07' W 122°58'0 0.0
2018-Jun-18 06:53N 46°07' W 122°58'0 0.0
2018-Jun-18 06:20N 46°07' W 122°58'0 0.0
2018-Jun-18 05:59N 46°07' W 122°58'0 0.0
2018-Jun-18 05:29N 46°07' W 122°58'0 0.0
2018-Jun-18 04:55N 46°07' W 122°58'0 0.0
2018-Jun-18 04:26N 46°07' W 122°58'0 0.0
2018-Jun-18 03:56N 46°07' W 122°58'0 0.0
2018-Jun-18 03:22N 46°07' W 122°58'0 0.0
2018-Jun-18 03:00N 46°07' W 122°58'5 6.0
2018-Jun-18 02:06N 46°10' W 123°05'410.6
2018-Jun-18 01:44N 46°11' W 123°10'312.2
2018-Jun-18 01:31N 46°10' W 123°13'611.3
2018-Jun-18 01:00N 46°09' W 123°21'5 9.9
2018-Jun-18 00:30N 46°12' W 123°26'510.1
2018-Jun-18 00:00N 46°16' W 123°31'613.0
2018-Jun-17 23:31N 46°15' W 123°40'811.5
2018-Jun-17 22:47N 46°12' W 123°51'310.5
2018-Jun-17 22:31N 46°11' W 123°55'612.2
2018-Jun-17 22:01N 46°15' W 124°02'812.0
2018-Jun-17 21:21N 46°12' W 124°12'511.7
2018-Jun-17 20:57N 46°09' W 124°17'610.8
2018-Jun-17 20:23N 46°04' W 124°23'1 3.6
2018-Jun-17 20:00N 46°03' W 124°24'2 4.0
2018-Jun-17 19:31N 46°01' W 124°24'4 8.0
2018-Jun-17 19:00N 45°57' W 124°25'611.6
2018-Jun-17 18:31N 45°52' W 124°27'611.5
2018-Jun-17 18:01N 45°46' W 124°29'611.6
2018-Jun-17 17:31N 45°41' W 124°32'611.7
2018-Jun-17 17:01N 45°35' W 124°34'611.6
2018-Jun-17 16:31N 45°29' W 124°36'711.7
2018-Jun-17 15:56N 45°23' W 124°39'511.8
2018-Jun-17 15:31N 45°18' W 124°41'611.9
2018-Jun-17 15:01N 45°12' W 124°43'611.9
2018-Jun-17 14:31N 45°07' W 124°45'612.4
2018-Jun-17 14:00N 45°01' W 124°47'713.4
2018-Jun-17 13:30N 44°54' W 124°51'713.6
2018-Jun-17 13:00N 44°48' W 124°53'713.2
2018-Jun-17 12:30N 44°41' W 124°55'713.2
2018-Jun-17 12:00N 44°35' W 124°58'713.0
2018-Jun-17 11:30N 44°29' W 125°00'713.2
2018-Jun-17 11:00N 44°22' W 125°03'713.2
2018-Jun-17 10:30N 44°16' W 125°06'1112.9
2018-Jun-17 09:41N 44°06' W 125°10'613.1
2018-Jun-17 09:12N 43°60' W 125°12'213.0
2018-Jun-17 09:00N 43°57' W 125°13'713.2
2018-Jun-17 08:30N 43°51' W 125°15'713.1
2018-Jun-17 08:00N 43°44' W 125°17'613.1
2018-Jun-17 07:30N 43°38' W 125°16'712.9
2018-Jun-17 06:56N 43°30' W 125°16'30411.2
2018-Jun-16 03:47N 38°30' W 124°13'311.3
2018-Jun-16 03:29N 38°27' W 124°11'611.4
2018-Jun-16 02:59N 38°21' W 124°08'611.4
2018-Jun-16 02:27N 38°16' W 124°06'512.1
2018-Jun-16 02:00N 38°11' W 124°03'612.2
2018-Jun-16 01:30N 38°05' W 124°01'612.2
2018-Jun-16 01:00N 37°59' W 123°58'612.1
2018-Jun-16 00:30N 37°53' W 123°56'612.1
2018-Jun-16 00:00N 37°48' W 123°53'611.8
2018-Jun-15 23:30N 37°42' W 123°50'611.8
2018-Jun-15 23:00N 37°37' W 123°47'4412.2
2018-Jun-15 19:25N 36°56' W 123°27'612.7
2018-Jun-15 18:59N 36°51' W 123°24'612.0
2018-Jun-15 18:27N 36°45' W 123°22'512.1
2018-Jun-15 18:00N 36°40' W 123°19'13212.6
2018-Jun-15 07:27N 34°47' W 121°54'613.5
2018-Jun-15 07:00N 34°42' W 121°50'813.2
2018-Jun-15 06:23N 34°35' W 121°44'613.7
2018-Jun-15 05:59N 34°30' W 121°41'813.0
2018-Jun-15 05:23N 34°24' W 121°36'713.0
2018-Jun-15 04:52N 34°18' W 121°31'713.8
2018-Jun-15 04:21N 34°12' W 121°27'514.0
2018-Jun-15 04:00N 34°08' W 121°24'713.7
2018-Jun-15 03:30N 34°02' W 121°19'713.4
2018-Jun-15 02:57N 33°56' W 121°14'813.0
2018-Jun-15 02:19N 33°49' W 121°09'412.5
2018-Jun-15 02:00N 33°46' W 121°06'712.3
2018-Jun-15 01:26N 33°40' W 121°02'512.4
2018-Jun-15 01:00N 33°35' W 120°59'612.5
2018-Jun-15 00:30N 33°30' W 120°55'612.2
2018-Jun-15 00:00N 33°25' W 120°51'711.9
2018-Jun-14 23:27N 33°19' W 120°46'512.3
2018-Jun-14 23:00N 33°15' W 120°43'612.6
2018-Jun-14 22:30N 33°09' W 120°39'611.8
2018-Jun-14 22:00N 33°04' W 120°35'612.1
2018-Jun-14 21:30N 32°59' W 120°31'712.7
2018-Jun-14 20:59N 32°54' W 120°27'15312.9
2018-Jun-14 09:07N 30°46' W 118°48'413.1
2018-Jun-14 08:49N 30°43' W 118°45'2812.6
2018-Jun-14 06:38N 30°22' W 118°24'5612.9
2018-Jun-14 02:19N 29°39' W 117°44'1913.4
2018-Jun-14 00:52N 29°24' W 117°30'513.3
2018-Jun-14 00:30N 29°20' W 117°27'  

Dump ship's entire track history